Time;durP1;ratioP1;P1;durP2;ratioP2;P2;SDS_P1;SDS_P2;PMS_P1;PMS_P2;Temp;Humidity;BMP_temperature;BMP_pressure;BME280_temperature;BME280_humidity;BME280_pressure;Samples;Min_cycle;Max_cycle;Signal;HPM_P1;HPM_P2
2022/08/05 00:02:02;;;;;;;12.43;1.80;;;;;;;30.17;25.04;98430.00;5072856;28;20039;-48
2022/08/05 00:04:28;;;;;;;2.88;1.45;;;;;;;30.44;23.93;98442.88;5072906;28;20103;-49
2022/08/05 00:06:53;;;;;;;18.63;2.55;;;;;;;30.29;24.67;98432.72;5054938;28;20048;-49
2022/08/05 00:09:19;;;;;;;5.75;1.65;;;;;;;30.51;23.75;98433.44;5072829;28;20103;-49
2022/08/05 00:11:44;;;;;;;6.15;1.25;;;;;;;30.44;23.50;98434.75;5053819;28;20074;-48
2022/08/05 00:14:10;;;;;;;1.73;1.00;;;;;;;30.24;23.41;98431.03;5072616;28;20016;-49
2022/08/05 00:16:36;;;;;;;2.20;0.60;;;;;;;29.97;22.97;98431.66;5072622;28;20032;-49
2022/08/05 00:19:01;;;;;;;3.03;1.65;;;;;;;29.74;23.77;98425.81;5072653;28;20498;-48
2022/08/05 00:21:27;;;;;;;1.17;0.60;;;;;;;29.58;23.58;98426.44;5054495;28;20024;-49
2022/08/05 00:23:53;;;;;;;2.65;1.10;;;;;;;29.44;24.13;98420.53;5072534;28;20064;-49
2022/08/05 00:26:19;;;;;;;1.60;0.60;;;;;;;29.28;24.11;98433.84;5072750;28;20099;-49
2022/08/05 00:28:45;;;;;;;2.42;0.90;;;;;;;29.09;24.04;98429.66;5072190;28;20478;-48
2022/08/05 00:31:10;;;;;;;1.75;0.80;;;;;;;29.00;24.42;98433.56;5072388;28;20095;-49
2022/08/05 00:33:36;;;;;;;1.77;0.82;;;;;;;28.89;24.54;98427.75;5072241;28;20027;-49
2022/08/05 00:36:02;;;;;;;13.95;1.88;;;;;;;28.87;24.97;98428.06;5072259;28;20070;-48
2022/08/05 00:38:27;;;;;;;10.10;1.42;;;;;;;28.90;24.67;98428.56;5072278;28;20478;-49
2022/08/05 00:40:57;;;;;;;6.53;1.48;;;;;;;28.95;25.12;98431.03;5072200;28;20017;-49
2022/08/05 00:43:22;;;;;;;19.55;2.55;;;;;;;29.30;25.34;98428.91;5072069;28;20029;-49
2022/08/05 00:45:48;;;;;;;9.85;1.40;;;;;;;29.63;24.51;98428.13;5054105;28;20017;-49
2022/08/05 00:48:19;;;;;;;8.55;1.95;;;;;;;29.62;24.15;98432.75;5054147;28;20039;-49
2022/08/05 00:50:48;;;;;;;13.05;2.10;;;;;;;29.54;24.80;98436.34;5054173;28;20035;-49
2022/08/05 00:53:16;;;;;;;8.02;1.40;;;;;;;29.64;24.91;98421.59;5072031;28;20383;-48
2022/08/05 00:55:45;;;;;;;5.18;1.10;;;;;;;29.67;23.99;98432.53;5071942;28;20031;-49
2022/08/05 00:58:12;;;;;;;9.52;1.63;;;;;;;29.87;24.13;98425.53;5071987;28;20024;-49
2022/08/05 01:00:38;;;;;;;15.50;3.35;;;;;;;30.27;23.85;98419.50;5071882;28;20013;-49
2022/08/05 01:03:04;;;;;;;21.20;2.38;;;;;;;30.60;23.26;98423.25;5053878;28;20037;-48
2022/08/05 01:05:33;;;;;;;12.38;2.45;;;;;;;30.60;22.77;98415.13;5053867;28;20490;-48
2022/08/05 01:07:59;;;;;;;19.60;3.22;;;;;;;30.55;23.14;98420.78;5071908;28;20028;-49
2022/08/05 01:10:33;;;;;;;12.02;1.90;;;;;;;30.60;23.32;98426.75;5053741;28;20029;-49
2022/08/05 01:13:16;;;;;;;9.90;1.45;;;;;;;30.77;23.26;98414.88;5053733;28;20040;-49
2022/08/05 01:15:53;;;;;;;7.03;1.40;;;;;;;30.86;22.18;98415.53;5053805;28;20032;-49
2022/08/05 01:18:24;;;;;;;2.50;0.90;;;;;;;30.74;22.31;98407.44;5071729;28;20028;-49
2022/08/05 01:21:22;;;;;;;1.52;0.80;;;;;;;30.39;22.50;98413.34;5071729;28;20060;-48
2022/08/05 01:24:08;;;;;;;7.40;1.50;;;;;;;29.98;22.88;98403.44;5071520;28;20097;-48
2022/08/05 01:26:47;;;;;;;2.13;0.88;;;;;;;29.64;25.08;98410.78;5071711;28;20437;-50
2022/08/05 01:29:18;;;;;;;2.40;0.85;;;;;;;29.00;26.13;98409.25;5071479;28;20045;-49
2022/08/05 01:31:58;;;;;;;1.63;0.73;;;;;;;28.38;26.25;98397.19;5071715;28;20398;-50
2022/08/05 01:34:44;;;;;;;1.73;0.68;;;;;;;27.89;25.97;98394.84;5053567;28;20552;-48
2022/08/05 01:37:31;;;;;;;5.32;0.90;;;;;;;27.80;26.34;98394.03;5071605;28;20032;-48
2022/08/05 01:39:57;;;;;;;3.63;0.90;;;;;;;27.85;26.67;98393.88;5071613;28;20028;-48
2022/08/05 01:42:26;;;;;;;2.10;0.90;;;;;;;27.87;26.56;98395.16;5053410;28;20024;-49
2022/08/05 01:44:55;;;;;;;4.00;0.88;;;;;;;27.88;27.04;98390.56;5053526;28;20056;-48
2022/08/05 01:47:24;;;;;;;2.33;1.13;;;;;;;27.82;27.13;98392.59;5036845;28;20020;-49
2022/08/05 01:49:52;;;;;;;3.20;1.33;;;;;;;27.77;27.20;98397.38;5071478;28;20374;-49
2022/08/05 01:52:22;;;;;;;3.38;1.20;;;;;;;27.72;28.06;98390.25;5053267;28;20036;-48
2022/08/05 01:54:51;;;;;;;3.15;1.10;;;;;;;27.68;28.09;98384.69;5071437;28;20039;-49
2022/08/05 01:57:27;;;;;;;3.53;1.10;;;;;;;27.61;28.16;98403.28;5053348;28;20036;-48
2022/08/05 01:59:57;;;;;;;5.82;1.13;;;;;;;27.56;28.59;98394.56;5071451;28;20028;-49
2022/08/05 02:02:25;;;;;;;4.30;1.40;;;;;;;27.53;28.56;98405.97;5071378;28;20025;-49
2022/08/05 02:04:53;;;;;;;3.47;1.10;;;;;;;27.50;28.91;98391.25;5053202;28;20059;-48
2022/08/05 02:07:20;;;;;;;1.90;0.90;;;;;;;27.54;29.49;98391.41;5071299;28;20016;-49
2022/08/05 02:09:45;;;;;;;3.67;1.33;;;;;;;27.55;30.05;98396.47;5036681;28;20086;-48
2022/08/05 02:12:14;;;;;;;2.22;1.20;;;;;;;27.54;30.12;98383.31;5053193;28;20016;-48
2022/08/05 02:14:51;;;;;;;2.13;1.30;;;;;;;27.54;30.67;98392.19;5071182;28;20401;-48
2022/08/05 02:17:30;;;;;;;2.75;1.30;;;;;;;27.49;31.09;98392.38;5071205;28;20039;-48
2022/08/05 02:20:00;;;;;;;5.53;1.30;;;;;;;27.41;31.35;98382.38;5071281;28;20556;-49
2022/08/05 02:22:35;;;;;;;6.97;1.30;;;;;;;27.37;32.05;98382.22;5071182;28;20032;-49
2022/08/05 02:25:07;;;;;;;9.50;1.60;;;;;;;27.37;31.99;98386.84;5071226;28;20115;-49
2022/08/05 02:27:37;;;;;;;4.72;1.50;;;;;;;27.37;32.27;98384.91;5049191;28;20116;-49
2022/08/05 02:30:05;;;;;;;6.88;1.60;;;;;;;27.40;32.28;98386.19;5033267;28;20028;-48
2022/08/05 02:32:33;;;;;;;8.80;2.13;;;;;;;27.43;32.41;98383.66;5050945;28;20079;-49
2022/08/05 02:35:02;;;;;;;12.05;2.25;;;;;;;27.45;32.71;98388.72;5033921;28;20078;-49
2022/08/05 02:37:32;;;;;;;7.55;1.75;;;;;;;27.46;32.78;98385.69;5054574;28;20049;-49
2022/08/05 02:40:01;;;;;;;2.92;1.33;;;;;;;27.53;32.93;98382.53;5054657;28;20025;-49
2022/08/05 02:42:27;;;;;;;8.55;1.75;;;;;;;27.59;32.56;98369.69;5036540;28;20394;-49
2022/08/05 02:44:56;;;;;;;4.00;1.70;;;;;;;27.53;33.28;98374.44;5036550;28;20021;-49
2022/08/05 02:47:23;;;;;;;5.22;1.65;;;;;;;27.48;32.87;98378.06;5054365;28;20021;-48
2022/08/05 02:49:49;;;;;;;4.30;1.45;;;;;;;27.45;32.69;98375.25;5020204;28;20029;-49
2022/08/05 02:52:18;;;;;;;6.93;1.55;;;;;;;27.44;32.56;98379.81;5036381;28;20025;-49
2022/08/05 02:54:45;;;;;;;8.25;1.88;;;;;;;27.48;31.96;98378.06;5036377;28;20029;-49
2022/08/05 02:57:13;;;;;;;11.45;2.38;;;;;;;27.53;31.72;98374.44;5054207;28;20032;-48
2022/08/05 02:59:45;;;;;;;11.32;2.00;;;;;;;27.59;31.79;98381.25;5054169;28;20021;-49
2022/08/05 03:02:14;;;;;;;41.28;3.97;;;;;;;27.66;32.25;98383.44;5054152;28;20028;-49
2022/08/05 03:04:42;;;;;;;23.38;3.35;;;;;;;27.73;32.18;98380.25;5036160;28;20040;-49
2022/08/05 03:07:09;;;;;;;11.93;1.75;;;;;;;27.83;32.29;98375.31;5053978;28;20021;-49
2022/08/05 03:09:36;;;;;;;6.63;1.55;;;;;;;28.01;32.64;98378.78;5036148;28;20036;-48
2022/08/05 03:12:02;;;;;;;11.57;2.30;;;;;;;27.95;32.51;98371.97;5036042;28;20087;-49
2022/08/05 03:14:28;;;;;;;15.70;3.03;;;;;;;27.84;32.85;98371.50;5035917;28;20116;-49
2022/08/05 03:16:53;;;;;;;30.45;3.45;;;;;;;27.81;33.11;98366.75;5053939;28;20056;-49
2022/08/05 03:19:20;;;;;;;7.68;1.90;;;;;;;27.92;32.85;98366.44;5036132;28;20025;-49
2022/08/05 03:21:46;;;;;;;14.75;1.92;;;;;;;27.83;33.45;98364.53;5035894;28;20029;-49
2022/08/05 03:24:12;;;;;;;15.55;2.53;;;;;;;27.94;33.27;98373.09;5053708;28;20086;-49
2022/08/05 03:26:38;;;;;;;13.00;2.17;;;;;;;27.93;33.23;98365.31;5035794;28;20082;-49
2022/08/05 03:29:04;;;;;;;14.10;2.40;;;;;;;27.82;33.76;98368.31;5069681;28;20440;-49
2022/08/05 03:31:30;;;;;;;7.30;1.90;;;;;;;27.72;33.78;98368.69;5073599;28;20027;-49
2022/08/05 03:33:57;;;;;;;6.35;1.80;;;;;;;27.65;33.80;98365.69;5073677;28;20048;-49
2022/08/05 03:36:24;;;;;;;13.50;1.73;;;;;;;27.54;34.23;98357.13;5073506;28;20017;-49
2022/08/05 03:38:50;;;;;;;6.43;1.80;;;;;;;27.59;34.41;98362.38;5055766;28;20060;-49
2022/08/05 03:41:16;;;;;;;12.15;2.88;;;;;;;27.56;34.74;98363.00;5073393;28;20568;-49
2022/08/05 03:43:42;;;;;;;3.20;1.38;;;;;;;27.44;34.31;98357.47;5055478;28;20102;-48
2022/08/05 03:46:07;;;;;;;6.90;2.38;;;;;;;27.39;34.58;98358.44;5073229;28;20068;-49
2022/08/05 03:48:33;;;;;;;5.38;1.70;;;;;;;27.35;34.84;98352.13;5055306;28;20507;-49
2022/08/05 03:51:27;;;;;;;6.47;1.45;;;;;;;27.27;34.83;98361.78;5073240;28;20020;-49
2022/08/05 03:54:30;;;;;;;13.30;1.80;;;;;;;27.22;34.54;98364.59;5073177;28;20051;-48
2022/08/05 03:57:01;;;;;;;5.95;2.03;;;;;;;27.26;34.70;98370.19;5073402;28;20492;-49
2022/08/05 03:59:32;;;;;;;16.48;3.05;;;;;;;27.27;35.08;98367.16;5073058;28;20107;-49
2022/08/05 04:02:00;;;;;;;9.30;1.85;;;;;;;27.65;34.07;98366.47;5073072;28;20028;-49
2022/08/05 04:04:28;;;;;;;11.15;2.10;;;;;;;27.65;33.58;98373.78;5072965;28;20039;-49
2022/08/05 04:06:54;;;;;;;9.00;1.88;;;;;;;27.60;33.74;98374.72;5072905;28;20394;-49
2022/08/05 04:09:20;;;;;;;11.52;2.00;;;;;;;27.57;33.36;98377.25;5072824;28;20390;-49
2022/08/05 04:11:46;;;;;;;12.50;2.20;;;;;;;27.81;33.52;98380.25;5072803;28;20082;-49
2022/08/05 04:14:14;;;;;;;4.97;1.80;;;;;;;27.83;32.72;98380.72;5054737;28;20048;-49
2022/08/05 04:16:42;;;;;;;13.15;2.58;;;;;;;27.70;33.30;98385.16;5072738;28;20020;-49
2022/08/05 04:19:11;;;;;;;14.75;2.53;;;;;;;27.68;33.22;98392.00;5072674;28;20032;-49
2022/08/05 04:21:37;;;;;;;8.30;2.08;;;;;;;27.88;32.99;98388.63;5072648;28;20020;-47
2022/08/05 04:24:04;;;;;;;15.50;2.63;;;;;;;28.07;33.16;98392.88;5072538;28;20398;-49
2022/08/05 04:26:29;;;;;;;8.18;1.77;;;;;;;28.24;32.42;98400.91;5072512;28;20024;-48
2022/08/05 04:28:55;;;;;;;17.15;3.72;;;;;;;28.37;32.73;98391.00;5072318;28;20044;-47
2022/08/05 04:31:21;;;;;;;11.20;2.45;;;;;;;28.65;32.50;98404.88;5072399;28;20033;-48
2022/08/05 04:33:48;;;;;;;18.38;2.85;;;;;;;29.02;31.81;98396.97;5072257;28;20032;-49
2022/08/05 04:36:14;;;;;;;30.50;3.50;;;;;;;29.05;31.56;98414.44;5054408;28;20035;-48
2022/08/05 04:38:41;;;;;;;24.35;3.17;;;;;;;28.74;31.43;98412.91;5072237;28;20162;-48
2022/08/05 04:41:07;;;;;;;24.75;3.78;;;;;;;28.36;31.74;98421.81;5054254;28;20036;-48
2022/08/05 04:43:33;;;;;;;34.30;5.43;;;;;;;28.02;32.66;98422.72;5054279;28;20380;-48
2022/08/05 04:45:58;;;;;;;25.02;3.45;;;;;;;28.01;32.67;98421.13;5054167;28;20390;-48
2022/08/05 04:48:24;;;;;;;8.93;1.50;;;;;;;28.01;32.35;98432.72;5072120;28;20111;-48
2022/08/05 04:50:50;;;;;;;12.88;1.70;;;;;;;28.16;32.58;98427.94;5054151;28;20028;-47
2022/08/05 04:53:17;;;;;;;6.15;1.70;;;;;;;28.15;32.55;98432.53;5054025;28;20480;-47
2022/08/05 04:55:44;;;;;;;25.13;3.03;;;;;;;28.27;32.20;98439.94;5054092;28;20103;-46
2022/08/05 04:58:12;;;;;;;67.20;7.05;;;;;;;28.96;31.66;98438.03;5071510;28;20464;-48
2022/08/05 05:00:39;;;;;;;41.47;6.43;;;;;;;29.90;30.14;98442.22;5072008;28;20100;-48
2022/08/05 05:03:07;;;;;;;41.90;5.07;;;;;;;30.71;29.30;98443.34;5072002;28;20056;-48
2022/08/05 05:05:34;;;;;;;16.48;3.03;;;;;;;31.63;27.42;98449.13;5072171;28;20431;-47
2022/08/05 05:08:07;;;;;;;29.73;4.53;;;;;;;32.27;27.02;98450.03;5071802;28;20032;-48
2022/08/05 05:10:42;;;;;;;13.95;3.17;;;;;;;32.55;25.91;98455.41;5071942;28;20414;-50
2022/08/05 05:13:08;;;;;;;;;;;;;;;32.44;26.08;98452.41;5072241;28;20065;-50
2022/08/05 05:15:34;;;;;;;20.50;3.30;;;;;;;32.33;26.23;98459.50;5071818;28;19912;-51
2022/08/05 05:18:00;;;;;;;31.35;3.55;;;;;;;32.15;26.23;98445.47;5071728;28;20078;-50
2022/08/05 05:20:25;;;;;;;16.60;2.58;;;;;;;32.22;26.48;98458.47;5071747;28;20024;-50
2022/08/05 05:22:51;;;;;;;19.88;3.08;;;;;;;32.22;26.45;98466.63;5071739;28;20021;-49
2022/08/05 05:25:17;;;;;;;15.80;2.33;;;;;;;32.09;26.26;98462.38;5053661;28;20043;-50
2022/08/05 05:27:42;;;;;;;29.90;6.63;;;;;;;32.00;26.85;98471.50;5071383;28;20576;-50
2022/08/05 05:30:08;;;;;;;28.80;4.93;;;;;;;32.26;26.66;98472.91;5071693;28;20118;-50
2022/08/05 05:32:34;;;;;;;51.58;6.93;;;;;;;32.28;26.72;98470.66;5071651;28;20397;-49
2022/08/05 05:35:00;;;;;;;40.60;8.15;;;;;;;32.40;26.93;98465.13;5053627;28;20025;-48
2022/08/05 05:37:25;;;;;;;96.70;10.45;;;;;;;32.97;26.23;98465.66;5071616;28;20028;-48
2022/08/05 05:39:51;;;;;;;42.30;5.88;;;;;;;32.90;25.82;98475.59;5071643;28;20497;-49
2022/08/05 05:42:17;;;;;;;22.83;3.80;;;;;;;32.40;26.33;98475.22;5071565;28;20575;-50
2022/08/05 05:44:42;;;;;;;73.22;7.50;;;;;;;31.85;26.95;98477.63;5053554;28;20042;-50
2022/08/05 05:47:08;;;;;;;18.05;3.10;;;;;;;31.77;27.60;98482.06;5071471;28;20482;-48
2022/08/05 05:49:33;;;;;;;20.25;2.80;;;;;;;31.63;27.17;98468.13;5071409;28;20025;-48
2022/08/05 05:52:00;;;;;;;36.38;3.65;;;;;;;30.99;27.99;98473.25;5071435;28;20048;-49
2022/08/05 05:54:25;;;;;;;20.83;2.85;;;;;;;30.34;28.79;98470.41;5071617;28;20066;-49
2022/08/05 05:56:51;;;;;;;8.90;2.30;;;;;;;30.17;29.27;98478.72;5053326;28;20445;-49
2022/08/05 05:59:17;;;;;;;112.38;10.38;;;;;;;31.60;28.56;98480.47;5053429;28;20032;-49
2022/08/05 06:01:42;;;;;;;109.18;10.93;;;;;;;33.14;26.55;98480.84;5036756;28;20414;-50
2022/08/05 06:04:12;;;;;;;85.70;8.48;;;;;;;34.38;24.86;98480.09;5053305;28;20537;-50
2022/08/05 06:06:42;;;;;;;55.97;5.35;;;;;;;35.85;23.09;98470.44;5071294;28;20032;-50
2022/08/05 06:09:08;;;;;;;20.33;2.63;;;;;;;36.66;21.91;98469.59;5071357;28;20059;-50
2022/08/05 06:11:34;;;;;;;12.80;2.67;;;;;;;36.76;21.82;98476.31;5074759;28;20028;-49
2022/08/05 06:14:00;;;;;;;42.58;4.30;;;;;;;37.05;21.40;98484.72;5074985;28;20024;-49
2022/08/05 06:16:26;;;;;;;47.45;5.85;;;;;;;37.91;21.03;98479.56;5075007;28;20028;-50
2022/08/05 06:18:52;;;;;;;61.00;5.88;;;;;;;38.00;20.54;98484.69;5056998;28;20029;-48
2022/08/05 06:21:18;;;;;;;72.28;11.07;;;;;;;38.10;21.03;98478.47;5075158;28;20021;-48
2022/08/05 06:23:44;;;;;;;98.15;8.38;;;;;;;38.17;21.27;98475.72;5074893;28;20379;-48
2022/08/05 06:26:10;;;;;;;93.15;7.80;;;;;;;38.57;21.36;98490.22;5074755;28;20032;-48
2022/08/05 06:28:36;;;;;;;71.45;8.85;;;;;;;39.11;19.99;98488.19;5074559;28;20509;-48
2022/08/05 06:31:02;;;;;;;83.07;8.48;;;;;;;39.10;20.69;98494.88;5074716;28;20029;-50
2022/08/05 06:33:30;;;;;;;42.55;5.70;;;;;;;39.47;20.20;98490.06;5056657;28;20017;-49
2022/08/05 06:35:56;;;;;;;32.97;4.20;;;;;;;39.75;19.69;98489.13;5056701;28;20020;-50
2022/08/05 06:38:22;;;;;;;56.55;5.65;;;;;;;40.23;18.73;98488.44;5074596;28;20559;-50
2022/08/05 06:40:47;;;;;;;125.55;10.65;;;;;;;40.77;19.17;98495.47;5056506;28;20021;-50
2022/08/05 06:43:13;;;;;;;208.25;22.50;;;;;;;41.72;18.37;98501.06;5074567;28;20028;-50
2022/08/05 06:45:39;;;;;;;83.78;9.82;;;;;;;42.36;17.85;98503.28;5074415;28;20506;-48
2022/08/05 06:48:05;;;;;;;49.65;4.50;;;;;;;43.05;16.92;98498.16;5074433;28;20025;-49
2022/08/05 06:50:30;;;;;;;60.55;6.45;;;;;;;43.52;16.44;98502.75;5074397;28;20025;-49
2022/08/05 06:52:56;;;;;;;52.58;5.10;;;;;;;43.98;15.77;98500.97;5056212;28;20048;-49
2022/08/05 06:55:22;;;;;;;81.85;7.00;;;;;;;44.29;15.77;98506.94;5039748;28;20525;-49
2022/08/05 06:57:47;;;;;;;102.60;10.43;;;;;;;44.41;16.13;98502.69;5074271;28;20029;-48
2022/08/05 07:00:13;;;;;;;71.03;8.65;;;;;;;43.96;16.49;98498.63;5074179;28;20023;-48
2022/08/05 07:02:43;;;;;;;49.22;5.70;;;;;;;43.13;17.34;98501.56;5074200;28;20516;-48
2022/08/05 07:05:10;;;;;;;49.28;5.40;;;;;;;42.59;17.83;98511.59;5056083;28;20028;-50
2022/08/05 07:07:36;;;;;;;82.43;8.88;;;;;;;42.16;18.56;98506.78;5074125;28;20048;-48
2022/08/05 07:10:02;;;;;;;63.67;5.68;;;;;;;41.80;18.68;98517.53;5073983;28;20094;-49
2022/08/05 07:17:56;;;;;;;;;;;;;;;42.00;18.93;98517.59;5074375;28;20039;-47
2022/08/05 07:20:21;;;;;;;91.15;10.18;;;;;;;42.31;18.98;98512.81;5073439;28;19912;-49
2022/08/05 07:22:47;;;;;;;33.20;3.80;;;;;;;42.28;18.69;98519.97;5073778;28;20031;-48
2022/08/05 07:25:16;;;;;;;24.88;4.07;;;;;;;42.06;18.74;98521.50;5073795;28;20067;-48
2022/08/05 07:27:41;;;;;;;24.75;3.53;;;;;;;41.64;19.06;98518.13;5073562;28;20051;-48
2022/08/05 07:30:08;;;;;;;16.90;2.65;;;;;;;41.23;19.17;98524.50;5073684;28;20028;-49
2022/08/05 07:32:37;;;;;;;47.05;5.15;;;;;;;40.80;19.88;98522.19;5055774;28;20032;-49
2022/08/05 07:35:07;;;;;;;24.27;3.72;;;;;;;41.03;19.24;98522.34;5073537;28;20081;-48
2022/08/05 07:37:33;;;;;;;18.02;2.60;;;;;;;41.45;18.81;98523.03;5055501;28;20031;-50
2022/08/05 07:39:59;;;;;;;42.22;4.57;;;;;;;41.77;18.38;98526.59;5073432;28;20025;-49
2022/08/05 07:42:25;;;;;;;7.47;1.90;;;;;;;42.43;17.38;98523.25;5073438;28;20509;-48
2022/08/05 07:44:50;;;;;;;16.02;2.38;;;;;;;43.16;17.12;98520.03;5073371;28;20052;-48
2022/08/05 07:47:16;;;;;;;12.07;2.38;;;;;;;43.66;16.36;98519.03;5073563;28;20032;-48
2022/08/05 07:49:41;;;;;;;26.08;3.38;;;;;;;43.84;16.21;98524.97;5073299;28;20047;-49
2022/08/05 07:52:07;;;;;;;12.77;2.47;;;;;;;44.26;16.11;98522.44;5073214;28;20052;-49
2022/08/05 07:54:33;;;;;;;16.80;3.42;;;;;;;44.39;15.97;98521.72;5073118;28;20044;-48
2022/08/05 07:56:59;;;;;;;21.10;3.40;;;;;;;44.31;15.71;98526.66;5055148;28;20113;-50
2022/08/05 07:59:25;;;;;;;14.05;2.10;;;;;;;44.48;15.79;98521.94;5055459;28;20025;-49
2022/08/05 08:01:51;;;;;;;35.65;3.97;;;;;;;44.98;15.38;98526.19;5073025;28;20509;-50
2022/08/05 08:04:17;;;;;;;16.23;3.22;;;;;;;44.91;15.23;98520.03;5073204;28;20032;-47
2022/08/05 08:06:42;;;;;;;20.75;4.47;;;;;;;44.43;15.46;98525.19;5072898;28;20036;-48
2022/08/05 08:09:08;;;;;;;15.60;2.28;;;;;;;44.16;15.55;98526.22;5054994;28;20186;-49
2022/08/05 08:11:34;;;;;;;11.02;2.13;;;;;;;44.62;15.44;98524.31;5072865;28;20020;-49
2022/08/05 08:13:59;;;;;;;11.95;2.70;;;;;;;45.34;14.79;98530.75;5072953;28;20539;-50
2022/08/05 08:16:25;;;;;;;38.78;4.28;;;;;;;46.08;14.30;98526.16;5054795;28;20024;-49
2022/08/05 08:18:50;;;;;;;29.60;3.58;;;;;;;46.38;14.21;98527.56;5072683;28;20055;-49
2022/08/05 08:21:16;;;;;;;24.73;4.15;;;;;;;45.75;14.72;98525.59;5054692;28;20056;-49
2022/08/05 08:23:42;;;;;;;10.35;2.40;;;;;;;45.78;14.73;98524.69;5072603;28;20024;-52
2022/08/05 08:26:07;;;;;;;18.17;2.88;;;;;;;46.22;14.24;98527.69;5054631;28;20418;-52
2022/08/05 08:28:33;;;;;;;19.65;3.13;;;;;;;47.03;13.66;98528.94;5072294;28;20110;-51
2022/08/05 08:30:59;;;;;;;26.98;2.95;;;;;;;47.66;13.45;98517.91;5072398;28;20020;-52
2022/08/05 08:33:24;;;;;;;10.65;2.60;;;;;;;48.03;12.97;98520.84;5071626;28;20028;-52
2022/08/05 08:35:50;;;;;;;17.02;3.03;;;;;;;47.77;13.59;98517.50;5072356;28;20070;-50
2022/08/05 08:38:16;;;;;;;15.20;2.67;;;;;;;47.17;13.70;98530.47;5072329;28;20025;-51
2022/08/05 08:40:42;;;;;;;8.45;1.88;;;;;;;46.70;14.05;98531.28;5072234;28;20099;-52
2022/08/05 08:43:11;;;;;;;17.88;3.35;;;;;;;46.25;15.69;98535.16;5054323;28;20028;-50
2022/08/05 08:45:38;;;;;;;8.07;2.42;;;;;;;46.08;14.91;98528.94;5072114;28;20032;-52
2022/08/05 08:48:05;;;;;;;17.33;2.70;;;;;;;46.10;15.92;98532.03;5072185;28;20036;-51
2022/08/05 08:50:34;;;;;;;12.18;2.50;;;;;;;45.97;15.38;98532.03;5072141;28;20025;-52
2022/08/05 08:53:06;;;;;;;21.15;2.92;;;;;;;45.51;15.69;98527.88;5072049;28;20085;-51
2022/08/05 08:55:33;;;;;;;10.80;2.73;;;;;;;45.58;15.52;98536.78;5054213;28;20028;-51
2022/08/05 08:58:00;;;;;;;13.73;2.90;;;;;;;46.43;14.58;98529.03;5072026;28;20258;-52
2022/08/05 09:00:26;;;;;;;20.15;2.72;;;;;;;47.19;13.79;98528.00;5072224;28;20454;-51
2022/08/05 09:02:55;;;;;;;9.48;2.47;;;;;;;47.93;13.60;98531.19;5072029;28;20514;-51
2022/08/05 09:05:22;;;;;;;13.05;1.90;;;;;;;48.42;12.83;98538.00;5071951;28;20021;-51
2022/08/05 09:07:49;;;;;;;6.72;2.13;;;;;;;48.77;12.98;98535.69;5071834;28;20081;-52
2022/08/05 09:10:15;;;;;;;15.20;2.90;;;;;;;48.31;13.43;98535.63;5071914;28;20028;-51
2022/08/05 09:12:41;;;;;;;13.00;2.28;;;;;;;47.96;13.67;98533.06;5071780;28;20042;-51
2022/08/05 09:15:08;;;;;;;10.15;2.45;;;;;;;48.69;12.74;98531.69;5071852;28;20032;-51
2022/08/05 09:17:34;;;;;;;9.68;2.30;;;;;;;49.49;12.14;98526.19;5053827;28;20025;-51
2022/08/05 09:20:03;;;;;;;18.02;2.78;;;;;;;49.32;12.63;98528.53;5071735;28;20031;-50
2022/08/05 09:23:02;;;;;;;19.50;3.20;;;;;;;49.70;12.44;98527.94;5071996;28;20108;-52
2022/08/05 09:25:28;;;;;;;5.97;2.45;;;;;;;49.58;12.15;98537.31;5053709;28;20513;-52
2022/08/05 09:27:54;;;;;;;13.82;2.65;;;;;;;49.71;12.12;98534.31;5071392;28;20044;-52
2022/08/05 09:30:20;;;;;;;7.18;2.22;;;;;;;49.68;12.05;98527.66;5071681;28;20021;-51
2022/08/05 09:32:46;;;;;;;11.90;2.67;;;;;;;49.59;12.13;98536.06;5053697;28;20021;-51
2022/08/05 09:35:15;;;;;;;26.63;4.13;;;;;;;49.49;12.67;98526.97;5071594;28;20025;-51
2022/08/05 09:37:52;;;;;;;5.50;1.80;;;;;;;49.19;12.31;98528.72;5071522;28;20039;-51
2022/08/05 09:40:42;;;;;;;8.40;2.38;;;;;;;48.85;13.18;98525.03;5071554;28;20525;-51
2022/08/05 09:43:25;;;;;;;11.95;2.22;;;;;;;49.01;13.20;98528.75;5071629;28;20025;-50
2022/08/05 09:45:51;;;;;;;7.70;1.63;;;;;;;49.05;12.72;98526.59;5057662;28;20024;-51
2022/08/05 09:48:31;;;;;;;6.20;1.80;;;;;;;49.09;12.67;98530.75;5075653;28;20036;-51
2022/08/05 09:51:03;;;;;;;8.77;2.25;;;;;;;49.77;12.11;98527.66;5057626;28;20039;-51
2022/08/05 09:53:45;;;;;;;8.70;1.90;;;;;;;50.30;11.93;98531.09;5075501;28;20111;-50
2022/08/05 09:56:11;;;;;;;;;;;;;;;50.63;11.88;98530.25;5075944;28;20028;-54
2022/08/05 09:58:37;;;;;;;8.98;2.63;;;;;;;50.15;12.15;98517.06;5075434;28;19913;-53
2022/08/05 10:01:05;;;;;;;3.72;1.80;;;;;;;50.23;11.94;98523.88;5057351;28;20032;-52
2022/08/05 10:03:31;;;;;;;6.53;1.92;;;;;;;50.50;12.10;98524.94;5057258;28;20029;-53
2022/08/05 10:06:07;;;;;;;8.05;2.30;;;;;;;50.74;11.75;98516.50;5057255;28;20040;-51
2022/08/05 10:08:34;;;;;;;5.72;1.95;;;;;;;50.66;11.70;98518.13;5075252;28;20020;-52
2022/08/05 10:11:03;;;;;;;5.78;2.33;;;;;;;50.58;11.94;98514.94;5075155;28;20028;-51
2022/08/05 10:13:37;;;;;;;6.40;2.35;;;;;;;50.42;11.89;98513.31;5075014;28;20020;-53
2022/08/05 10:16:04;;;;;;;10.82;2.20;;;;;;;50.08;11.97;98514.66;5057082;28;20127;-52
2022/08/05 10:18:32;;;;;;;7.30;2.00;;;;;;;50.08;11.93;98515.41;5075004;28;20019;-53
2022/08/05 10:21:04;;;;;;;18.52;3.00;;;;;;;49.93;12.18;98506.19;5057008;28;20024;-52
2022/08/05 10:23:32;;;;;;;4.95;2.33;;;;;;;49.45;12.42;98512.41;5056917;28;20036;-51
2022/08/05 10:26:07;;;;;;;11.25;2.83;;;;;;;49.39;12.55;98511.50;5075125;28;20397;-51
2022/08/05 10:28:33;;;;;;;8.23;2.95;;;;;;;49.09;12.75;98496.53;5074507;28;20043;-52
2022/08/05 10:30:59;;;;;;;19.63;3.80;;;;;;;48.90;12.80;98498.53;5074757;28;20020;-51
2022/08/05 10:33:27;;;;;;;5.00;2.38;;;;;;;48.93;12.75;98503.94;5056721;28;20033;-51
2022/08/05 10:35:54;;;;;;;9.82;2.80;;;;;;;49.21;12.49;98505.97;5074753;28;20027;-51
2022/08/05 10:38:22;;;;;;;9.60;2.55;;;;;;;49.24;12.20;98500.19;5074648;28;20498;-51
2022/08/05 10:40:51;;;;;;;4.18;2.72;;;;;;;49.28;12.04;98498.00;5075028;28;20098;-51
2022/08/05 10:43:19;;;;;;;9.45;2.53;;;;;;;49.81;12.13;98499.59;5074517;28;20371;-51
2022/08/05 10:45:58;;;;;;;10.98;2.70;;;;;;;50.04;11.63;98492.47;5074434;28;20024;-51
2022/08/05 10:48:30;;;;;;;16.77;2.70;;;;;;;49.95;12.18;98486.94;5056563;28;20035;-53
2022/08/05 10:51:05;;;;;;;10.07;2.20;;;;;;;50.08;11.85;98483.94;5074360;28;20044;-52
2022/08/05 10:53:35;;;;;;;16.67;3.28;;;;;;;49.80;12.11;98491.69;5074358;28;20035;-53
2022/08/05 10:56:03;;;;;;;6.88;2.22;;;;;;;49.96;12.16;98486.44;5055513;28;20021;-51
2022/08/05 10:58:29;;;;;;;8.23;2.45;;;;;;;50.09;11.83;98488.25;5074308;28;20021;-51
2022/08/05 11:00:54;;;;;;;8.25;2.25;;;;;;;49.94;11.73;98490.97;5056306;28;20114;-52
2022/08/05 11:03:20;;;;;;;8.88;2.38;;;;;;;49.81;11.86;98491.22;5056186;28;20086;-52
2022/08/05 11:06:12;;;;;;;8.35;3.17;;;;;;;49.67;12.35;98487.06;5074394;28;20020;-51
2022/08/05 11:08:38;;;;;;;13.40;2.83;;;;;;;49.69;12.15;98481.78;5070459;28;20520;-50
2022/08/05 11:11:33;;;;;;;14.73;2.70;;;;;;;50.04;11.85;98486.88;5074084;28;20016;-51
2022/08/05 11:14:00;;;;;;;9.73;2.67;;;;;;;49.65;12.20;98492.34;5074168;28;20087;-52
2022/08/05 11:16:26;;;;;;;15.20;4.20;;;;;;;48.44;12.76;98484.59;5055960;28;20048;-51
2022/08/05 11:19:29;;;;;;;16.60;3.53;;;;;;;47.72;13.50;98493.06;5073943;28;20083;-50
2022/08/05 11:22:16;;;;;;;5.45;2.28;;;;;;;48.21;12.96;98484.69;5073863;28;20024;-52
2022/08/05 11:24:44;;;;;;;7.20;2.40;;;;;;;48.67;12.47;98489.59;5055731;28;20117;-51
2022/08/05 11:27:29;;;;;;;17.25;4.25;;;;;;;48.75;12.36;98485.25;5073515;28;20505;-51
2022/08/05 11:29:59;;;;;;;33.63;5.47;;;;;;;48.55;13.28;98484.91;5055788;28;20033;-52
2022/08/05 11:32:27;;;;;;;27.30;4.13;;;;;;;48.28;13.19;98483.69;5073621;28;20027;-51
2022/08/05 11:34:54;;;;;;;15.38;2.72;;;;;;;47.98;13.07;98485.28;5073793;28;20427;-52
2022/08/05 11:37:38;;;;;;;13.77;3.15;;;;;;;48.50;13.07;98474.38;5073505;28;20074;-51
2022/08/05 11:40:05;;;;;;;12.45;3.20;;;;;;;48.83;12.32;98477.34;5073771;28;20409;-51
2022/08/05 11:42:36;;;;;;;18.20;4.10;;;;;;;48.78;12.31;98481.53;5073352;28;20078;-52